sensor_id;sensor_type;location;lat;lon;timestamp;pressure;altitude;pressure_sealevel;temperature;humidity
62057;BME280;48016;50.284;18.860;2023-04-26T00:01:29;97616.63;;;6.73;66.08
62057;BME280;48016;50.284;18.860;2023-04-26T00:03:56;97620.32;;;6.68;65.89
62057;BME280;48016;50.284;18.860;2023-04-26T00:06:23;97620.88;;;6.63;65.73
62057;BME280;48016;50.284;18.860;2023-04-26T00:08:49;97625.83;;;6.59;65.69
62057;BME280;48016;50.284;18.860;2023-04-26T00:11:16;97628.74;;;6.56;65.80
62057;BME280;48016;50.284;18.860;2023-04-26T00:13:43;97625.84;;;6.53;65.80
62057;BME280;48016;50.284;18.860;2023-04-26T00:16:09;97623.27;;;6.50;65.93
62057;BME280;48016;50.284;18.860;2023-04-26T00:18:36;97623.70;;;6.48;65.63
62057;BME280;48016;50.284;18.860;2023-04-26T00:21:03;97621.52;;;6.46;65.52
62057;BME280;48016;50.284;18.860;2023-04-26T00:23:29;97623.17;;;6.44;65.49
62057;BME280;48016;50.284;18.860;2023-04-26T00:25:56;97622.20;;;6.41;65.67
62057;BME280;48016;50.284;18.860;2023-04-26T00:28:22;97626.21;;;6.40;65.50
62057;BME280;48016;50.284;18.860;2023-04-26T00:30:49;97622.58;;;6.37;65.22
62057;BME280;48016;50.284;18.860;2023-04-26T00:33:16;97620.70;;;6.33;65.01
62057;BME280;48016;50.284;18.860;2023-04-26T00:35:43;97615.67;;;6.29;64.71
62057;BME280;48016;50.284;18.860;2023-04-26T00:38:09;97610.36;;;6.26;64.59
62057;BME280;48016;50.284;18.860;2023-04-26T00:40:36;97610.72;;;6.21;64.37
62057;BME280;48016;50.284;18.860;2023-04-26T00:43:03;97619.05;;;6.15;64.26
62057;BME280;48016;50.284;18.860;2023-04-26T00:45:31;97627.56;;;6.07;64.06
62057;BME280;48016;50.284;18.860;2023-04-26T00:48:00;97634.92;;;6.02;64.01
62057;BME280;48016;50.284;18.860;2023-04-26T00:50:28;97638.03;;;5.96;63.90
62057;BME280;48016;50.284;18.860;2023-04-26T00:52:57;97642.27;;;5.91;63.86
62057;BME280;48016;50.284;18.860;2023-04-26T00:55:25;97645.91;;;5.85;63.65
62057;BME280;48016;50.284;18.860;2023-04-26T00:57:52;97641.69;;;5.77;63.60
62057;BME280;48016;50.284;18.860;2023-04-26T01:00:20;97642.86;;;5.68;63.68
62057;BME280;48016;50.284;18.860;2023-04-26T01:02:47;97643.01;;;5.61;63.75
62057;BME280;48016;50.284;18.860;2023-04-26T01:05:14;97643.71;;;5.53;63.74
62057;BME280;48016;50.284;18.860;2023-04-26T01:07:40;97643.89;;;5.46;64.06
62057;BME280;48016;50.284;18.860;2023-04-26T01:10:08;97644.15;;;5.40;63.98
62057;BME280;48016;50.284;18.860;2023-04-26T01:12:37;97647.02;;;5.35;64.02
62057;BME280;48016;50.284;18.860;2023-04-26T01:15:04;97648.09;;;5.31;64.33
62057;BME280;48016;50.284;18.860;2023-04-26T01:17:31;97649.54;;;5.26;64.44
62057;BME280;48016;50.284;18.860;2023-04-26T01:19:58;97651.12;;;5.19;64.61
62057;BME280;48016;50.284;18.860;2023-04-26T01:22:25;97655.51;;;5.14;64.78
62057;BME280;48016;50.284;18.860;2023-04-26T01:24:54;97656.55;;;5.10;64.60
62057;BME280;48016;50.284;18.860;2023-04-26T01:27:21;97658.27;;;5.08;64.62
62057;BME280;48016;50.284;18.860;2023-04-26T01:29:48;97656.90;;;5.01;64.68
62057;BME280;48016;50.284;18.860;2023-04-26T01:32:14;97662.35;;;4.96;64.79
62057;BME280;48016;50.284;18.860;2023-04-26T01:34:41;97665.11;;;4.92;64.71
62057;BME280;48016;50.284;18.860;2023-04-26T01:37:08;97667.73;;;4.88;64.76
62057;BME280;48016;50.284;18.860;2023-04-26T01:39:35;97667.66;;;4.82;64.83
62057;BME280;48016;50.284;18.860;2023-04-26T01:42:03;97666.11;;;4.77;64.76
62057;BME280;48016;50.284;18.860;2023-04-26T01:44:30;97668.83;;;4.72;64.96
62057;BME280;48016;50.284;18.860;2023-04-26T01:46:56;97670.21;;;4.67;64.96
62057;BME280;48016;50.284;18.860;2023-04-26T01:49:23;97669.16;;;4.63;65.07
62057;BME280;48016;50.284;18.860;2023-04-26T01:51:49;97671.36;;;4.59;65.05
62057;BME280;48016;50.284;18.860;2023-04-26T01:54:16;97669.10;;;4.54;65.25
62057;BME280;48016;50.284;18.860;2023-04-26T01:56:43;97671.84;;;4.47;65.58
62057;BME280;48016;50.284;18.860;2023-04-26T01:59:10;97670.86;;;4.42;65.33
62057;BME280;48016;50.284;18.860;2023-04-26T02:01:36;97665.08;;;4.38;65.56
62057;BME280;48016;50.284;18.860;2023-04-26T02:04:03;97667.73;;;4.35;65.55
62057;BME280;48016;50.284;18.860;2023-04-26T02:06:31;97668.27;;;4.31;65.69
62057;BME280;48016;50.284;18.860;2023-04-26T02:08:58;97671.14;;;4.27;65.81
62057;BME280;48016;50.284;18.860;2023-04-26T02:11:25;97670.45;;;4.23;66.04
62057;BME280;48016;50.284;18.860;2023-04-26T02:13:52;97674.05;;;4.20;66.17
62057;BME280;48016;50.284;18.860;2023-04-26T02:16:20;97672.84;;;4.16;66.20
62057;BME280;48016;50.284;18.860;2023-04-26T02:18:47;97674.59;;;4.14;66.27
62057;BME280;48016;50.284;18.860;2023-04-26T02:21:18;97677.52;;;4.11;66.54
62057;BME280;48016;50.284;18.860;2023-04-26T02:23:44;97671.86;;;4.09;66.67
62057;BME280;48016;50.284;18.860;2023-04-26T02:26:12;97671.19;;;4.08;66.59
62057;BME280;48016;50.284;18.860;2023-04-26T02:28:38;97675.10;;;4.06;66.70
62057;BME280;48016;50.284;18.860;2023-04-26T02:31:05;97672.42;;;4.04;66.79
62057;BME280;48016;50.284;18.860;2023-04-26T02:33:32;97673.64;;;4.00;66.71
62057;BME280;48016;50.284;18.860;2023-04-26T02:36:02;97675.07;;;3.97;66.79
62057;BME280;48016;50.284;18.860;2023-04-26T02:38:29;97675.71;;;3.93;66.77
62057;BME280;48016;50.284;18.860;2023-04-26T02:40:58;97670.77;;;3.88;66.50
62057;BME280;48016;50.284;18.860;2023-04-26T02:43:25;97673.04;;;3.84;66.63
62057;BME280;48016;50.284;18.860;2023-04-26T02:45:52;97672.67;;;3.81;66.95
62057;BME280;48016;50.284;18.860;2023-04-26T02:48:19;97670.26;;;3.77;66.81
62057;BME280;48016;50.284;18.860;2023-04-26T02:50:46;97669.02;;;3.76;66.81
62057;BME280;48016;50.284;18.860;2023-04-26T02:53:12;97671.13;;;3.73;67.17
62057;BME280;48016;50.284;18.860;2023-04-26T02:55:39;97670.59;;;3.71;67.08
62057;BME280;48016;50.284;18.860;2023-04-26T02:58:06;97673.13;;;3.68;67.18
62057;BME280;48016;50.284;18.860;2023-04-26T03:00:33;97675.52;;;3.65;67.42
62057;BME280;48016;50.284;18.860;2023-04-26T03:02:59;97675.02;;;3.63;67.58
62057;BME280;48016;50.284;18.860;2023-04-26T03:05:26;97678.92;;;3.59;67.81
62057;BME280;48016;50.284;18.860;2023-04-26T03:07:53;97681.17;;;3.57;67.85
62057;BME280;48016;50.284;18.860;2023-04-26T03:10:19;97687.12;;;3.52;68.14
62057;BME280;48016;50.284;18.860;2023-04-26T03:12:46;97693.16;;;3.48;67.95
62057;BME280;48016;50.284;18.860;2023-04-26T03:15:13;97697.17;;;3.46;68.34
62057;BME280;48016;50.284;18.860;2023-04-26T03:17:39;97702.55;;;3.46;68.63
62057;BME280;48016;50.284;18.860;2023-04-26T03:20:06;97698.23;;;3.46;68.42
62057;BME280;48016;50.284;18.860;2023-04-26T03:22:33;97702.85;;;3.47;68.38
62057;BME280;48016;50.284;18.860;2023-04-26T03:25:00;97700.67;;;3.46;68.38
62057;BME280;48016;50.284;18.860;2023-04-26T03:27:26;97702.59;;;3.44;68.58
62057;BME280;48016;50.284;18.860;2023-04-26T03:29:53;97703.55;;;3.43;68.65
62057;BME280;48016;50.284;18.860;2023-04-26T03:32:19;97702.68;;;3.43;68.82
62057;BME280;48016;50.284;18.860;2023-04-26T03:34:46;97707.66;;;3.42;68.91
62057;BME280;48016;50.284;18.860;2023-04-26T03:37:14;97716.58;;;3.39;68.96
62057;BME280;48016;50.284;18.860;2023-04-26T03:39:40;97721.28;;;3.39;69.02
62057;BME280;48016;50.284;18.860;2023-04-26T03:42:07;97727.02;;;3.38;68.87
62057;BME280;48016;50.284;18.860;2023-04-26T03:44:34;97727.81;;;3.39;68.76
62057;BME280;48016;50.284;18.860;2023-04-26T03:47:00;97733.00;;;3.38;68.83
62057;BME280;48016;50.284;18.860;2023-04-26T03:49:28;97731.16;;;3.36;68.52
62057;BME280;48016;50.284;18.860;2023-04-26T03:51:54;97730.81;;;3.34;68.41
62057;BME280;48016;50.284;18.860;2023-04-26T03:54:21;97731.88;;;3.34;68.50
62057;BME280;48016;50.284;18.860;2023-04-26T03:56:47;97732.62;;;3.34;68.29
62057;BME280;48016;50.284;18.860;2023-04-26T03:59:14;97733.80;;;3.35;68.40
62057;BME280;48016;50.284;18.860;2023-04-26T04:01:41;97740.85;;;3.38;68.50
62057;BME280;48016;50.284;18.860;2023-04-26T04:04:07;97743.80;;;3.40;68.32
62057;BME280;48016;50.284;18.860;2023-04-26T04:06:35;97745.17;;;3.44;68.39
62057;BME280;48016;50.284;18.860;2023-04-26T04:09:01;97746.04;;;3.45;68.52
62057;BME280;48016;50.284;18.860;2023-04-26T04:11:30;97745.20;;;3.49;68.34
62057;BME280;48016;50.284;18.860;2023-04-26T04:13:58;97747.28;;;3.55;68.46
62057;BME280;48016;50.284;18.860;2023-04-26T04:16:24;97752.83;;;3.60;68.41
62057;BME280;48016;50.284;18.860;2023-04-26T04:18:52;97753.55;;;3.68;68.37
62057;BME280;48016;50.284;18.860;2023-04-26T04:21:18;97755.48;;;3.77;68.26
62057;BME280;48016;50.284;18.860;2023-04-26T04:23:45;97759.06;;;3.91;67.99
62057;BME280;48016;50.284;18.860;2023-04-26T04:26:12;97758.27;;;4.07;67.76
62057;BME280;48016;50.284;18.860;2023-04-26T04:28:39;97762.77;;;4.22;67.66
62057;BME280;48016;50.284;18.860;2023-04-26T04:31:10;97764.57;;;4.37;67.36
62057;BME280;48016;50.284;18.860;2023-04-26T04:33:36;97769.80;;;4.54;67.04
62057;BME280;48016;50.284;18.860;2023-04-26T04:36:03;97776.10;;;4.68;66.77
62057;BME280;48016;50.284;18.860;2023-04-26T04:38:32;97776.60;;;4.81;66.49
62057;BME280;48016;50.284;18.860;2023-04-26T04:40:58;97775.05;;;4.92;66.42
62057;BME280;48016;50.284;18.860;2023-04-26T04:43:25;97772.94;;;5.03;66.04
62057;BME280;48016;50.284;18.860;2023-04-26T04:45:51;97775.12;;;5.10;65.74
62057;BME280;48016;50.284;18.860;2023-04-26T04:48:19;97780.64;;;5.18;65.55
62057;BME280;48016;50.284;18.860;2023-04-26T04:50:48;97779.36;;;5.23;65.26
62057;BME280;48016;50.284;18.860;2023-04-26T04:53:14;97781.42;;;5.30;65.22
62057;BME280;48016;50.284;18.860;2023-04-26T04:55:41;97779.71;;;5.37;64.96
62057;BME280;48016;50.284;18.860;2023-04-26T04:58:08;97784.57;;;5.45;64.83
62057;BME280;48016;50.284;18.860;2023-04-26T05:00:35;97785.14;;;5.54;64.72
62057;BME280;48016;50.284;18.860;2023-04-26T05:03:03;97786.32;;;5.62;64.24
62057;BME280;48016;50.284;18.860;2023-04-26T05:05:30;97789.17;;;5.70;64.04
62057;BME280;48016;50.284;18.860;2023-04-26T05:07:56;97786.55;;;5.85;63.93
62057;BME280;48016;50.284;18.860;2023-04-26T05:10:23;97786.53;;;6.05;63.53
62057;BME280;48016;50.284;18.860;2023-04-26T05:12:49;97789.51;;;6.19;63.33
62057;BME280;48016;50.284;18.860;2023-04-26T05:15:16;97788.38;;;6.27;63.01
62057;BME280;48016;50.284;18.860;2023-04-26T05:17:43;97795.75;;;6.52;62.49
62057;BME280;48016;50.284;18.860;2023-04-26T05:20:10;97801.09;;;6.77;62.22
62057;BME280;48016;50.284;18.860;2023-04-26T05:22:36;97797.00;;;7.06;61.97
62057;BME280;48016;50.284;18.860;2023-04-26T05:25:05;97798.05;;;7.38;61.22
62057;BME280;48016;50.284;18.860;2023-04-26T05:27:33;97797.33;;;7.76;60.55
62057;BME280;48016;50.284;18.860;2023-04-26T05:29:59;97800.72;;;8.14;59.74
62057;BME280;48016;50.284;18.860;2023-04-26T05:32:26;97799.34;;;8.44;59.46
62057;BME280;48016;50.284;18.860;2023-04-26T05:34:53;97799.92;;;8.73;58.60
62057;BME280;48016;50.284;18.860;2023-04-26T05:37:20;97799.55;;;9.05;57.86
62057;BME280;48016;50.284;18.860;2023-04-26T05:39:46;97800.30;;;9.40;57.40
62057;BME280;48016;50.284;18.860;2023-04-26T05:42:14;97800.23;;;9.69;56.11
62057;BME280;48016;50.284;18.860;2023-04-26T05:44:41;97803.52;;;9.91;56.02
62057;BME280;48016;50.284;18.860;2023-04-26T05:47:08;97805.79;;;10.17;55.55
62057;BME280;48016;50.284;18.860;2023-04-26T05:49:35;97809.27;;;10.39;54.47
62057;BME280;48016;50.284;18.860;2023-04-26T05:52:01;97809.98;;;10.50;53.43
62057;BME280;48016;50.284;18.860;2023-04-26T05:54:29;97807.77;;;10.45;52.70
62057;BME280;48016;50.284;18.860;2023-04-26T05:56:55;97803.72;;;10.47;52.26
62057;BME280;48016;50.284;18.860;2023-04-26T05:59:22;97805.77;;;10.65;51.69
62057;BME280;48016;50.284;18.860;2023-04-26T06:01:48;97805.04;;;10.90;51.32
62057;BME280;48016;50.284;18.860;2023-04-26T06:04:15;97810.96;;;11.22;51.06
62057;BME280;48016;50.284;18.860;2023-04-26T06:06:42;97809.15;;;11.47;49.53
62057;BME280;48016;50.284;18.860;2023-04-26T06:09:08;97817.98;;;11.68;49.91
62057;BME280;48016;50.284;18.860;2023-04-26T06:11:35;97817.71;;;11.80;49.24
62057;BME280;48016;50.284;18.860;2023-04-26T06:14:02;97819.98;;;11.86;48.43
62057;BME280;48016;50.284;18.860;2023-04-26T06:16:28;97823.77;;;11.95;48.13
62057;BME280;48016;50.284;18.860;2023-04-26T06:18:55;97826.48;;;12.10;48.07
62057;BME280;48016;50.284;18.860;2023-04-26T06:21:21;97826.23;;;12.36;47.60
62057;BME280;48016;50.284;18.860;2023-04-26T06:23:48;97829.62;;;12.61;47.42
62057;BME280;48016;50.284;18.860;2023-04-26T06:26:14;97834.30;;;12.69;46.31
62057;BME280;48016;50.284;18.860;2023-04-26T06:28:41;97829.60;;;12.66;45.95
62057;BME280;48016;50.284;18.860;2023-04-26T06:31:08;97830.95;;;12.74;46.08
62057;BME280;48016;50.284;18.860;2023-04-26T06:33:34;97831.92;;;12.78;45.65
62057;BME280;48016;50.284;18.860;2023-04-26T06:36:01;97831.15;;;12.70;45.57
62057;BME280;48016;50.284;18.860;2023-04-26T06:38:28;97824.61;;;12.92;45.10
62057;BME280;48016;50.284;18.860;2023-04-26T06:40:54;97827.59;;;12.93;45.20
62057;BME280;48016;50.284;18.860;2023-04-26T06:43:21;97826.60;;;12.78;44.64
62057;BME280;48016;50.284;18.860;2023-04-26T06:45:48;97823.38;;;12.82;45.17
62057;BME280;48016;50.284;18.860;2023-04-26T06:48:14;97824.34;;;12.84;45.15
62057;BME280;48016;50.284;18.860;2023-04-26T06:50:41;97825.02;;;12.73;44.88
62057;BME280;48016;50.284;18.860;2023-04-26T06:53:08;97826.17;;;12.67;44.64
62057;BME280;48016;50.284;18.860;2023-04-26T06:55:34;97825.45;;;12.52;44.91
62057;BME280;48016;50.284;18.860;2023-04-26T06:58:01;97823.80;;;12.55;44.69
62057;BME280;48016;50.284;18.860;2023-04-26T07:00:28;97823.27;;;12.62;44.29
62057;BME280;48016;50.284;18.860;2023-04-26T07:02:55;97823.08;;;12.69;44.25
62057;BME280;48016;50.284;18.860;2023-04-26T07:05:22;97824.83;;;12.45;44.13
62057;BME280;48016;50.284;18.860;2023-04-26T07:07:48;97827.35;;;12.10;44.35
62057;BME280;48016;50.284;18.860;2023-04-26T07:10:15;97828.91;;;11.94;44.70
62057;BME280;48016;50.284;18.860;2023-04-26T07:12:42;97829.64;;;11.72;44.86
62057;BME280;48016;50.284;18.860;2023-04-26T07:15:09;97834.98;;;11.56;45.24
62057;BME280;48016;50.284;18.860;2023-04-26T07:17:35;97839.58;;;11.39;45.48
62057;BME280;48016;50.284;18.860;2023-04-26T07:20:02;97841.69;;;11.11;45.69
62057;BME280;48016;50.284;18.860;2023-04-26T07:22:29;97842.80;;;10.91;46.06
62057;BME280;48016;50.284;18.860;2023-04-26T07:24:56;97846.86;;;10.69;46.37
62057;BME280;48016;50.284;18.860;2023-04-26T07:27:22;97845.23;;;10.68;46.79
62057;BME280;48016;50.284;18.860;2023-04-26T07:29:53;97845.25;;;11.01;46.72
62057;BME280;48016;50.284;18.860;2023-04-26T07:32:20;97848.94;;;11.34;46.30
62057;BME280;48016;50.284;18.860;2023-04-26T07:34:47;97847.65;;;11.36;45.78
62057;BME280;48016;50.284;18.860;2023-04-26T07:37:14;97843.48;;;11.34;46.23
62057;BME280;48016;50.284;18.860;2023-04-26T07:39:40;97852.73;;;11.22;46.22
62057;BME280;48016;50.284;18.860;2023-04-26T07:42:07;97851.85;;;11.15;45.92
62057;BME280;48016;50.284;18.860;2023-04-26T07:44:33;97851.44;;;11.28;45.71
62057;BME280;48016;50.284;18.860;2023-04-26T07:47:00;97853.00;;;11.21;45.37
62057;BME280;48016;50.284;18.860;2023-04-26T07:49:26;97851.88;;;10.92;45.20
62057;BME280;48016;50.284;18.860;2023-04-26T07:51:53;97855.69;;;10.72;45.31
62057;BME280;48016;50.284;18.860;2023-04-26T07:54:21;97857.71;;;10.64;45.72
62057;BME280;48016;50.284;18.860;2023-04-26T07:56:48;97861.94;;;10.68;45.70
62057;BME280;48016;50.284;18.860;2023-04-26T07:59:14;97861.27;;;11.07;45.49
62057;BME280;48016;50.284;18.860;2023-04-26T08:01:41;97860.36;;;11.43;45.40
62057;BME280;48016;50.284;18.860;2023-04-26T08:04:08;97868.44;;;11.58;44.58
62057;BME280;48016;50.284;18.860;2023-04-26T08:06:35;97867.46;;;11.58;43.74
62057;BME280;48016;50.284;18.860;2023-04-26T08:09:03;97863.02;;;11.68;44.09
62057;BME280;48016;50.284;18.860;2023-04-26T08:11:30;97869.29;;;11.63;44.06
62057;BME280;48016;50.284;18.860;2023-04-26T08:13:57;97869.20;;;11.53;44.00
62057;BME280;48016;50.284;18.860;2023-04-26T08:16:24;97876.56;;;11.42;43.90
62057;BME280;48016;50.284;18.860;2023-04-26T08:18:51;97874.11;;;11.30;43.94
62057;BME280;48016;50.284;18.860;2023-04-26T08:21:17;97876.75;;;11.17;43.72
62057;BME280;48016;50.284;18.860;2023-04-26T08:23:44;97877.11;;;11.03;43.77
62057;BME280;48016;50.284;18.860;2023-04-26T08:26:10;97876.19;;;10.91;43.75
62057;BME280;48016;50.284;18.860;2023-04-26T08:28:37;97874.58;;;10.81;44.13
62057;BME280;48016;50.284;18.860;2023-04-26T08:31:04;97871.11;;;10.79;44.42
62057;BME280;48016;50.284;18.860;2023-04-26T08:33:30;97874.30;;;10.63;44.14
62057;BME280;48016;50.284;18.860;2023-04-26T08:35:58;97876.31;;;10.36;43.80
62057;BME280;48016;50.284;18.860;2023-04-26T08:38:26;97879.98;;;10.18;43.86
62057;BME280;48016;50.284;18.860;2023-04-26T08:40:54;97880.49;;;10.05;44.07
62057;BME280;48016;50.284;18.860;2023-04-26T08:43:21;97878.17;;;9.86;44.18
62057;BME280;48016;50.284;18.860;2023-04-26T08:45:48;97878.05;;;9.83;44.43
62057;BME280;48016;50.284;18.860;2023-04-26T08:48:16;97871.03;;;10.02;44.05
62057;BME280;48016;50.284;18.860;2023-04-26T08:50:43;97873.05;;;10.16;43.76
62057;BME280;48016;50.284;18.860;2023-04-26T08:53:15;97876.66;;;10.14;43.45
62057;BME280;48016;50.284;18.860;2023-04-26T08:55:48;97877.78;;;10.11;43.65
62057;BME280;48016;50.284;18.860;2023-04-26T08:58:16;97879.23;;;9.99;43.58
62057;BME280;48016;50.284;18.860;2023-04-26T09:00:43;97881.10;;;9.86;43.97
62057;BME280;48016;50.284;18.860;2023-04-26T09:03:11;97875.83;;;9.89;44.06
62057;BME280;48016;50.284;18.860;2023-04-26T09:05:41;97874.45;;;10.15;44.37
62057;BME280;48016;50.284;18.860;2023-04-26T09:08:17;97870.75;;;10.48;44.69
62057;BME280;48016;50.284;18.860;2023-04-26T09:10:45;97870.26;;;10.64;43.86
62057;BME280;48016;50.284;18.860;2023-04-26T09:13:11;97873.65;;;10.58;43.65
62057;BME280;48016;50.284;18.860;2023-04-26T09:15:39;97874.70;;;10.51;43.48
62057;BME280;48016;50.284;18.860;2023-04-26T09:18:20;97875.49;;;10.33;43.01
62057;BME280;48016;50.284;18.860;2023-04-26T09:21:04;97880.40;;;10.16;42.70
62057;BME280;48016;50.284;18.860;2023-04-26T09:23:32;97884.80;;;9.98;42.65
62057;BME280;48016;50.284;18.860;2023-04-26T09:26:17;97884.86;;;9.85;42.85
62057;BME280;48016;50.284;18.860;2023-04-26T09:28:44;97884.92;;;9.71;43.20
62057;BME280;48016;50.284;18.860;2023-04-26T09:31:36;97889.27;;;9.59;43.18
62057;BME280;48016;50.284;18.860;2023-04-26T09:34:07;97886.21;;;9.69;43.89
62057;BME280;48016;50.284;18.860;2023-04-26T09:36:54;97882.58;;;9.65;43.25
62057;BME280;48016;50.284;18.860;2023-04-26T09:39:37;97880.89;;;9.65;42.39
62057;BME280;48016;50.284;18.860;2023-04-26T09:42:06;97872.39;;;9.94;42.93
62057;BME280;48016;50.284;18.860;2023-04-26T09:44:33;97873.06;;;10.25;43.20
62057;BME280;48016;50.284;18.860;2023-04-26T09:49:41;97884.87;;;10.53;41.47
62057;BME280;48016;50.284;18.860;2023-04-26T09:52:09;97884.30;;;10.75;40.79
62057;BME280;48016;50.284;18.860;2023-04-26T09:54:52;97883.80;;;10.88;40.58
62057;BME280;48016;50.284;18.860;2023-04-26T09:57:20;97879.98;;;11.06;40.61
62057;BME280;48016;50.284;18.860;2023-04-26T09:59:51;97878.34;;;11.25;40.81
62057;BME280;48016;50.284;18.860;2023-04-26T10:02:20;97879.16;;;11.42;39.44
62057;BME280;48016;50.284;18.860;2023-04-26T10:04:49;97874.59;;;11.43;37.68
62057;BME280;48016;50.284;18.860;2023-04-26T10:07:18;97878.17;;;11.38;38.03
62057;BME280;48016;50.284;18.860;2023-04-26T10:09:46;97881.20;;;11.23;38.38
62057;BME280;48016;50.284;18.860;2023-04-26T10:12:16;97882.37;;;11.12;38.73
62057;BME280;48016;50.284;18.860;2023-04-26T10:14:44;97879.39;;;10.98;38.83
62057;BME280;48016;50.284;18.860;2023-04-26T10:17:12;97881.48;;;10.91;38.56
62057;BME280;48016;50.284;18.860;2023-04-26T10:19:41;97874.50;;;10.95;38.90
62057;BME280;48016;50.284;18.860;2023-04-26T10:22:21;97875.12;;;10.81;38.78
62057;BME280;48016;50.284;18.860;2023-04-26T10:24:51;97886.48;;;10.64;38.78
62057;BME280;48016;50.284;18.860;2023-04-26T10:30:14;97883.52;;;10.88;39.33
62057;BME280;48016;50.284;18.860;2023-04-26T10:35:18;97875.52;;;11.28;38.99
62057;BME280;48016;50.284;18.860;2023-04-26T10:40:37;97876.06;;;11.60;38.42
62057;BME280;48016;50.284;18.860;2023-04-26T10:45:38;97869.02;;;11.84;37.26
62057;BME280;48016;50.284;18.860;2023-04-26T10:48:15;97883.42;;;11.63;36.87
62057;BME280;48016;50.284;18.860;2023-04-26T10:59:18;97887.86;;;10.96;35.83
62057;BME280;48016;50.284;18.860;2023-04-26T11:01:45;97885.31;;;10.97;35.98
62057;BME280;48016;50.284;18.860;2023-04-26T11:04:12;97880.54;;;11.15;36.41
62057;BME280;48016;50.284;18.860;2023-04-26T11:06:49;97881.95;;;11.16;35.65
62057;BME280;48016;50.284;18.860;2023-04-26T11:11:59;97880.48;;;10.54;36.10
62057;BME280;48016;50.284;18.860;2023-04-26T11:14:26;97881.05;;;10.27;36.42
62057;BME280;48016;50.284;18.860;2023-04-26T11:16:53;97888.05;;;10.22;37.03
62057;BME280;48016;50.284;18.860;2023-04-26T11:19:20;97892.76;;;10.23;37.19
62057;BME280;48016;50.284;18.860;2023-04-26T11:21:46;97891.69;;;10.31;36.90
62057;BME280;48016;50.284;18.860;2023-04-26T11:24:14;97890.13;;;10.54;36.89
62057;BME280;48016;50.284;18.860;2023-04-26T11:26:41;97890.89;;;10.78;37.00
62057;BME280;48016;50.284;18.860;2023-04-26T11:29:07;97885.21;;;10.95;36.52
62057;BME280;48016;50.284;18.860;2023-04-26T11:31:35;97877.73;;;11.14;36.45
62057;BME280;48016;50.284;18.860;2023-04-26T11:34:05;97885.27;;;11.36;36.23
62057;BME280;48016;50.284;18.860;2023-04-26T11:36:32;97892.31;;;11.42;36.16
62057;BME280;48016;50.284;18.860;2023-04-26T11:39:01;97890.83;;;11.22;36.23
62057;BME280;48016;50.284;18.860;2023-04-26T11:41:27;97895.93;;;10.97;36.46
62057;BME280;48016;50.284;18.860;2023-04-26T11:43:54;97896.13;;;10.70;37.01
62057;BME280;48016;50.284;18.860;2023-04-26T11:46:21;97899.20;;;10.70;37.53
62057;BME280;48016;50.284;18.860;2023-04-26T11:48:49;97897.84;;;10.68;37.42
62057;BME280;48016;50.284;18.860;2023-04-26T11:51:16;97899.11;;;10.71;37.87
62057;BME280;48016;50.284;18.860;2023-04-26T11:53:43;97899.27;;;10.77;38.25
62057;BME280;48016;50.284;18.860;2023-04-26T11:56:14;97904.15;;;10.76;38.89
62057;BME280;48016;50.284;18.860;2023-04-26T11:58:52;97907.30;;;10.65;37.77
62057;BME280;48016;50.284;18.860;2023-04-26T12:01:23;97902.55;;;10.25;37.43
62057;BME280;48016;50.284;18.860;2023-04-26T12:03:53;97901.48;;;9.98;37.92
62057;BME280;48016;50.284;18.860;2023-04-26T12:06:25;97903.16;;;9.83;38.22
62057;BME280;48016;50.284;18.860;2023-04-26T12:08:55;97904.11;;;9.73;38.25
62057;BME280;48016;50.284;18.860;2023-04-26T12:11:22;97907.42;;;9.68;38.04
62057;BME280;48016;50.284;18.860;2023-04-26T12:13:48;97904.63;;;9.77;38.39
62057;BME280;48016;50.284;18.860;2023-04-26T12:16:15;97899.38;;;9.91;38.66
62057;BME280;48016;50.284;18.860;2023-04-26T12:18:48;97908.29;;;9.99;38.33
62057;BME280;48016;50.284;18.860;2023-04-26T12:21:15;97912.36;;;10.04;38.35
62057;BME280;48016;50.284;18.860;2023-04-26T12:23:42;97923.59;;;10.09;38.28
62057;BME280;48016;50.284;18.860;2023-04-26T12:26:13;97931.56;;;10.15;38.43
62057;BME280;48016;50.284;18.860;2023-04-26T12:28:40;97935.45;;;10.24;39.13
62057;BME280;48016;50.284;18.860;2023-04-26T12:31:07;97931.63;;;10.32;38.70
62057;BME280;48016;50.284;18.860;2023-04-26T12:33:34;97928.21;;;10.29;38.49
62057;BME280;48016;50.284;18.860;2023-04-26T12:36:10;97926.56;;;10.19;38.69
62057;BME280;48016;50.284;18.860;2023-04-26T12:38:38;97927.41;;;10.16;39.18
62057;BME280;48016;50.284;18.860;2023-04-26T12:41:05;97922.06;;;10.16;39.27
62057;BME280;48016;50.284;18.860;2023-04-26T12:43:32;97919.25;;;10.16;39.18
62057;BME280;48016;50.284;18.860;2023-04-26T12:45:59;97917.39;;;10.12;38.72
62057;BME280;48016;50.284;18.860;2023-04-26T12:48:26;97915.27;;;10.19;38.96
62057;BME280;48016;50.284;18.860;2023-04-26T12:50:53;97914.18;;;10.10;38.58
62057;BME280;48016;50.284;18.860;2023-04-26T12:53:20;97915.59;;;10.00;38.43
62057;BME280;48016;50.284;18.860;2023-04-26T12:55:47;97914.67;;;10.01;38.24
62057;BME280;48016;50.284;18.860;2023-04-26T12:58:13;97912.27;;;10.14;38.28
62057;BME280;48016;50.284;18.860;2023-04-26T13:00:40;97913.34;;;10.21;37.97
62057;BME280;48016;50.284;18.860;2023-04-26T13:03:07;97913.41;;;10.17;36.96
62057;BME280;48016;50.284;18.860;2023-04-26T13:05:34;97907.81;;;10.10;36.84
62057;BME280;48016;50.284;18.860;2023-04-26T13:08:01;97917.27;;;10.03;37.05
62057;BME280;48016;50.284;18.860;2023-04-26T13:10:28;97923.65;;;10.03;37.36
62057;BME280;48016;50.284;18.860;2023-04-26T13:12:54;97928.55;;;10.01;38.06
62057;BME280;48016;50.284;18.860;2023-04-26T13:15:23;97934.11;;;9.98;38.31
62057;BME280;48016;50.284;18.860;2023-04-26T13:17:51;97927.30;;;9.92;38.39
62057;BME280;48016;50.284;18.860;2023-04-26T13:20:19;97924.47;;;9.80;38.45
62057;BME280;48016;50.284;18.860;2023-04-26T13:22:46;97926.95;;;9.72;38.31